Hlavní strana
METAR-TAF:

METAR-TAF

Letiště :

Mezinárodní letiště Čhatrapatího Šivádžího

Bombaj, Indie

zeměpisná šířka: 19-07N, zeměpisná délka: 072-51E, výška: 8 m

Aktuální stav počasí

Zpráva byla vytvořena před 34 minutami, v 23:00 UTC
Východní vítr 3 kt
Teplota 28°C
Vlhkost vzduchu 58%
Tlak 1010 hPa
Viditelnost: 3000 m
zákal

METAR: VABB 152300Z 08003KT 3000 HZ NSC 28/19 Q1010 NOSIG

Čas: 05:04 (23:34 UTC)

Předpověď počasí

Zpráva byla vytvořena před 3 hodinami a 34 minutami, v 20:00 UTC
Předpověď platná od 15 v 21 UTC do 16 v 06 UTC
Východoseverovýchodní vítr 4 kt
Viditelnost: 3000 m
zákal, kouř
Změna
od 16 v 01 UTC do 16 v 03 UTC
Východojihovýchodní vítr 5 kt

TAF: VABB 152000Z 1521/1606 06004KT 3000 HZ FU NSC BECMG 1601/1603 12005KT

Stav a předpovědi počasí z více než 4 000 letišť (zprávy METAR a TAF).

Červené a žluté tečky na mapě představují dostupné meteorologické stanice.

Když kurzor umístíte na tečku, zobrazí se název stanice.

Pak kliknutím zobrazíte stav a předpověď počasí.

Chcete-li změnit mapu, kliknutím na zelené tlačítko se znaménkem +mapu přiblížíte, kliknutím na zelené tlačítko se znaménkem – mapu oddálíte a kliknutím na zelené šipky přejdete na sousední mapy.


METAR-TAF: